Time;durP1;ratioP1;P1;durP2;ratioP2;P2;SDS_P1;SDS_P2;PMS_P1;PMS_P2;Temp;Humidity;BMP_temperature;BMP_pressure;BME280_temperature;BME280_humidity;BME280_pressure;Samples;Min_cycle;Max_cycle;Signal;HPM_P1;HPM_P2
2023/10/31 00:02:17;;;;;;;0.77;0.63;;;15.10;99.90;;;;;;5041233;28;20551;-58
2023/10/31 00:04:44;;;;;;;2.50;0.50;;;15.10;99.90;;;;;;5041271;28;20222;-58
2023/10/31 00:07:11;;;;;;;0.87;0.30;;;15.10;99.90;;;;;;5033046;28;20210;-59
2023/10/31 00:09:39;;;;;;;0.40;0.40;;;15.00;99.90;;;;;;5041489;28;20210;-59
2023/10/31 00:12:06;;;;;;;0.87;0.60;;;15.00;99.90;;;;;;5043617;28;20241;-59
2023/10/31 00:14:33;;;;;;;1.00;0.70;;;15.00;99.90;;;;;;5044642;28;20205;-59
2023/10/31 00:17:01;;;;;;;2.17;0.67;;;14.90;99.90;;;;;;5042845;28;20229;-59
2023/10/31 00:19:28;;;;;;;0.97;0.70;;;15.00;99.90;;;;;;5040889;28;20206;-60
2023/10/31 00:21:54;;;;;;;1.00;0.80;;;15.00;99.90;;;;;;5041776;28;20742;-59
2023/10/31 00:24:21;;;;;;;0.83;0.60;;;14.90;99.90;;;;;;5044239;28;20217;-59
2023/10/31 00:26:48;;;;;;;0.30;0.27;;;14.90;99.90;;;;;;5043895;28;20222;-60
2023/10/31 00:29:15;;;;;;;0.83;0.27;;;14.90;99.90;;;;;;5040707;28;20675;-59
2023/10/31 00:31:42;;;;;;;0.67;0.50;;;15.00;99.90;;;;;;5040518;28;20257;-59
2023/10/31 00:34:10;;;;;;;0.50;0.47;;;15.00;99.90;;;;;;5043687;28;20573;-59
2023/10/31 00:36:37;;;;;;;0.47;0.40;;;15.00;99.90;;;;;;5044254;28;20232;-59
2023/10/31 00:39:03;;;;;;;0.50;0.43;;;15.10;99.90;;;;;;5041381;28;20206;-59
2023/10/31 00:41:31;;;;;;;0.93;0.33;;;15.00;99.90;;;;;;5040320;28;20249;-59
2023/10/31 00:43:58;;;;;;;0.73;0.33;;;15.00;99.90;;;;;;5042018;28;20233;-59
2023/10/31 00:46:25;;;;;;;0.50;0.33;;;14.90;99.90;;;;;;5043788;28;20229;-59
2023/10/31 00:48:52;;;;;;;2.67;0.50;;;14.90;99.90;;;;;;5042634;28;20454;-58
2023/10/31 00:51:20;;;;;;;0.43;0.40;;;14.80;99.90;;;;;;5040254;28;20226;-59
2023/10/31 00:53:47;;;;;;;0.67;0.50;;;14.70;99.90;;;;;;5040389;28;20699;-59
2023/10/31 00:56:13;;;;;;;0.38;0.22;;;14.70;99.90;;;;;;5043796;28;20293;-59
2023/10/31 00:58:40;;;;;;;0.60;0.40;;;14.70;99.90;;;;;;5043564;28;20205;-59
2023/10/31 01:01:07;;;;;;;1.13;0.30;;;14.70;99.90;;;;;;5040428;28;20206;-60
2023/10/31 01:03:33;;;;;;;0.73;0.30;;;14.70;99.90;;;;;;5040449;28;20206;-59
2023/10/31 01:06:00;;;;;;;0.53;0.23;;;14.60;99.90;;;;;;5041954;28;20222;-58
2023/10/31 01:08:29;;;;;;;1.10;0.50;;;14.60;99.90;;;;;;5043523;28;20205;-61
2023/10/31 01:10:56;;;;;;;0.50;0.30;;;14.60;99.90;;;;;;5041886;28;20740;-59
2023/10/31 01:13:23;;;;;;;0.70;0.30;;;14.50;99.90;;;;;;5040078;28;20202;-60
2023/10/31 01:15:50;;;;;;;2.37;0.30;;;14.60;99.90;;;;;;5040205;28;20285;-60
2023/10/31 01:18:16;;;;;;;0.83;0.23;;;14.60;99.90;;;;;;5043493;28;20208;-60
2023/10/31 01:20:43;;;;;;;2.03;0.40;;;14.50;99.90;;;;;;5043319;28;20205;-60
2023/10/31 01:23:10;;;;;;;1.37;0.33;;;14.40;99.90;;;;;;5039998;28;20225;-59
2023/10/31 01:25:38;;;;;;;0.80;0.30;;;14.40;99.90;;;;;;5039673;28;20218;-58
2023/10/31 01:28:04;;;;;;;1.80;0.40;;;14.40;99.90;;;;;;5039622;28;20205;-61
2023/10/31 01:30:31;;;;;;;0.83;0.30;;;14.20;99.90;;;;;;5039597;28;20198;-59
2023/10/31 01:32:58;;;;;;;0.47;0.20;;;14.20;99.90;;;;;;5040885;28;20313;-60
2023/10/31 01:35:25;;;;;;;1.33;0.97;;;14.10;99.90;;;;;;5043354;28;20201;-59
2023/10/31 01:37:51;;;;;;;2.50;0.67;;;14.10;99.90;;;;;;5042550;28;20213;-60
2023/10/31 01:40:18;;;;;;;1.00;0.50;;;14.10;99.90;;;;;;5039738;28;20206;-60
2023/10/31 01:42:46;;;;;;;1.37;0.50;;;14.10;99.90;;;;;;5039341;28;20225;-59
2023/10/31 01:45:13;;;;;;;0.63;0.50;;;14.00;99.90;;;;;;5031282;28;20711;-60
2023/10/31 01:47:40;;;;;;;1.00;0.50;;;14.00;99.90;;;;;;5039746;28;20206;-60
2023/10/31 01:50:09;;;;;;;1.93;0.40;;;13.90;99.90;;;;;;5042120;28;20213;-61
2023/10/31 01:52:37;;;;;;;0.23;0.23;;;13.80;99.90;;;;;;5042782;28;20609;-59
2023/10/31 01:55:06;;;;;;;1.40;0.60;;;13.70;99.90;;;;;;5042836;28;20198;-59
2023/10/31 01:57:33;;;;;;;0.30;0.20;;;13.70;99.90;;;;;;5042800;28;20620;-60
2023/10/31 02:00:02;;;;;;;1.53;0.40;;;13.50;99.90;;;;;;5042390;28;20209;-59
2023/10/31 02:02:31;;;;;;;0.93;0.60;;;13.40;99.90;;;;;;5042657;28;20231;-60
2023/10/31 02:04:58;;;;;;;0.87;0.30;;;13.40;99.90;;;;;;5041330;28;20601;-59
2023/10/31 02:07:25;;;;;;;2.47;0.80;;;13.20;99.90;;;;;;5039343;28;20214;-60
2023/10/31 02:09:52;;;;;;;1.30;0.50;;;13.20;99.90;;;;;;5039971;28;20210;-59
2023/10/31 02:12:34;;;;;;;0.90;0.47;;;13.30;99.90;;;;;;5042195;28;20714;-59
2023/10/31 02:15:03;;;;;;;1.23;0.33;;;13.30;99.90;;;;;;5040842;28;20250;-59
2023/10/31 02:17:29;;;;;;;1.20;0.40;;;13.30;99.90;;;;;;5039221;28;20268;-59
2023/10/31 02:19:56;;;;;;;3.47;0.60;;;13.30;99.90;;;;;;5040056;28;20206;-60
2023/10/31 02:22:24;;;;;;;0.30;0.30;;;13.40;99.90;;;;;;5042195;28;20612;-60
2023/10/31 02:24:51;;;;;;;0.47;0.30;;;13.40;99.90;;;;;;5042384;28;20222;-59
2023/10/31 02:27:18;;;;;;;1.93;1.30;;;13.50;99.90;;;;;;5042683;28;20198;-59
2023/10/31 02:29:44;;;;;;;0.57;0.50;;;13.50;99.90;;;;;;5042734;28;20202;-59
2023/10/31 02:32:11;;;;;;;1.40;0.60;;;13.60;99.90;;;;;;5039322;28;20222;-59
2023/10/31 02:34:38;;;;;;;2.80;0.60;;;13.60;99.90;;;;;;5039272;28;20198;-60
2023/10/31 02:37:05;;;;;;;1.03;0.50;;;13.60;99.90;;;;;;5040898;28;20677;-60
2023/10/31 02:39:33;;;;;;;1.27;0.63;;;13.60;99.90;;;;;;5042736;28;20205;-60
2023/10/31 02:42:00;;;;;;;2.40;0.50;;;13.50;99.90;;;;;;5041007;28;20240;-60
2023/10/31 02:44:27;;;;;;;0.40;0.30;;;13.50;99.90;;;;;;5039051;28;20266;-59
2023/10/31 02:46:53;;;;;;;2.30;0.50;;;13.50;99.90;;;;;;5039288;28;20293;-59
2023/10/31 02:49:20;;;;;;;1.83;0.50;;;13.50;99.90;;;;;;5042357;28;20679;-60
2023/10/31 02:51:46;;;;;;;1.03;0.50;;;13.50;99.90;;;;;;5042011;28;20604;-60
2023/10/31 02:54:13;;;;;;;0.47;0.30;;;13.50;99.90;;;;;;5039394;28;20245;-60
2023/10/31 02:56:41;;;;;;;0.47;0.37;;;13.40;99.90;;;;;;5039112;28;20214;-60
2023/10/31 02:59:08;;;;;;;0.30;0.20;;;13.40;99.90;;;;;;5041205;28;20672;-59
2023/10/31 03:01:36;;;;;;;1.90;0.37;;;13.40;99.90;;;;;;5042117;28;20226;-58
2023/10/31 03:04:03;;;;;;;3.77;0.70;;;13.20;99.90;;;;;;5040218;28;20244;-60
2023/10/31 03:06:30;;;;;;;2.33;0.50;;;13.10;99.90;;;;;;5038828;28;20313;-60
2023/10/31 03:08:57;;;;;;;1.53;0.40;;;13.10;99.90;;;;;;5039645;28;20214;-60
2023/10/31 03:11:24;;;;;;;1.63;0.30;;;13.10;99.90;;;;;;5043540;28;20229;-60
2023/10/31 03:13:52;;;;;;;1.37;0.73;;;13.10;99.90;;;;;;5045687;28;20240;-61
2023/10/31 03:16:19;;;;;;;0.30;0.30;;;13.10;99.90;;;;;;5042400;28;20194;-60
2023/10/31 03:18:46;;;;;;;1.03;0.50;;;13.00;99.90;;;;;;5042033;28;20202;-60
2023/10/31 03:21:13;;;;;;;2.50;0.40;;;13.00;99.90;;;;;;5045075;28;20343;-60
2023/10/31 03:23:40;;;;;;;0.80;0.60;;;12.90;99.90;;;;;;5045647;28;20205;-60
2023/10/31 03:26:06;;;;;;;0.40;0.30;;;12.80;99.90;;;;;;5043145;28;20217;-59
2023/10/31 03:28:33;;;;;;;1.47;0.50;;;12.80;99.90;;;;;;5042077;28;20210;-59
2023/10/31 03:31:01;;;;;;;0.93;0.50;;;12.80;99.90;;;;;;5042868;28;20206;-60
2023/10/31 03:33:28;;;;;;;0.87;0.40;;;12.80;99.90;;;;;;5045558;28;20202;-60
2023/10/31 03:35:54;;;;;;;0.77;0.30;;;12.70;99.90;;;;;;5044942;28;20209;-59
2023/10/31 03:38:21;;;;;;;0.80;0.43;;;12.80;99.90;;;;;;5042686;28;20585;-59
2023/10/31 03:40:48;;;;;;;2.27;0.47;;;12.70;99.90;;;;;;5042396;28;20667;-60
2023/10/31 03:43:14;;;;;;;2.33;0.80;;;12.70;99.90;;;;;;5044875;28;20598;-59
2023/10/31 03:45:41;;;;;;;4.00;0.53;;;12.80;99.90;;;;;;5044836;28;20225;-59
2023/10/31 03:48:09;;;;;;;0.53;0.50;;;12.80;99.90;;;;;;5042320;28;20217;-60
2023/10/31 03:50:36;;;;;;;0.80;0.50;;;12.80;99.90;;;;;;5041490;28;20676;-59
2023/10/31 03:53:02;;;;;;;1.13;0.40;;;12.70;99.90;;;;;;5042861;28;20241;-59
2023/10/31 03:55:30;;;;;;;0.40;0.40;;;12.70;99.90;;;;;;5045155;28;20202;-59
2023/10/31 03:57:56;;;;;;;0.53;0.40;;;12.60;99.90;;;;;;5044036;28;20209;-60
2023/10/31 04:00:23;;;;;;;0.47;0.20;;;12.60;99.90;;;;;;5041417;28;20202;-59
2023/10/31 04:02:50;;;;;;;2.23;1.53;;;12.60;99.90;;;;;;5041248;28;20233;-59
2023/10/31 04:05:18;;;;;;;3.17;1.50;;;12.70;99.90;;;;;;5044956;28;20218;-59
2023/10/31 04:07:46;;;;;;;2.13;0.80;;;12.70;99.90;;;;;;5044626;28;20214;-59
2023/10/31 04:10:13;;;;;;;1.80;1.03;;;12.70;99.90;;;;;;5041932;28;20214;-59
2023/10/31 04:12:40;;;;;;;1.93;0.60;;;12.80;99.90;;;;;;5041089;28;20237;-60
2023/10/31 04:15:08;;;;;;;2.03;0.80;;;12.90;99.90;;;;;;5042831;28;20218;-59
2023/10/31 04:17:35;;;;;;;1.80;0.63;;;12.90;99.90;;;;;;5044192;28;20625;-59
2023/10/31 04:20:02;;;;;;;2.87;0.90;;;12.90;99.90;;;;;;5043068;28;20205;-59
2023/10/31 04:22:30;;;;;;;2.83;0.70;;;13.00;99.90;;;;;;5040465;28;20226;-59
2023/10/31 04:24:57;;;;;;;1.57;0.70;;;13.00;99.90;;;;;;5041190;28;20206;-60
2023/10/31 04:27:23;;;;;;;2.60;0.90;;;13.10;99.90;;;;;;5044018;28;20198;-59
2023/10/31 04:29:50;;;;;;;0.50;0.47;;;13.20;99.90;;;;;;5044107;28;20201;-59
2023/10/31 04:32:17;;;;;;;4.63;0.80;;;13.20;99.90;;;;;;5040587;28;20226;-59
2023/10/31 04:34:43;;;;;;;2.87;0.63;;;13.20;99.90;;;;;;5040636;28;20210;-59
2023/10/31 04:37:10;;;;;;;2.53;0.70;;;13.20;99.90;;;;;;5043157;28;20210;-60
2023/10/31 04:39:38;;;;;;;1.70;0.87;;;13.20;99.90;;;;;;5044083;28;20202;-59
2023/10/31 04:42:05;;;;;;;2.80;1.77;;;13.30;99.90;;;;;;5042289;28;20237;-59
2023/10/31 04:44:32;;;;;;;2.03;1.00;;;13.30;99.90;;;;;;5040833;28;20206;-59
2023/10/31 04:46:59;;;;;;;1.37;1.00;;;13.30;99.90;;;;;;5041254;28;20229;-58
2023/10/31 04:49:25;;;;;;;2.53;1.30;;;13.50;99.90;;;;;;5043936;28;20292;-59
2023/10/31 04:51:52;;;;;;;3.03;1.60;;;13.40;99.90;;;;;;5043580;28;20221;-60
2023/10/31 04:54:19;;;;;;;1.93;0.90;;;13.40;99.90;;;;;;5043953;28;20228;-60
2023/10/31 04:56:48;;;;;;;2.07;1.77;;;13.40;99.90;;;;;;5043528;28;20198;-60
2023/10/31 04:59:15;;;;;;;2.97;0.90;;;13.40;99.90;;;;;;5041002;28;20202;-60
2023/10/31 05:01:41;;;;;;;0.67;0.57;;;13.40;99.90;;;;;;5040109;28;20230;-60
2023/10/31 05:04:08;;;;;;;1.33;0.60;;;13.40;99.90;;;;;;5042076;28;20228;-60
2023/10/31 05:06:35;;;;;;;2.87;0.90;;;13.40;99.90;;;;;;5043643;28;20218;-60
2023/10/31 05:09:01;;;;;;;1.23;0.83;;;13.50;99.90;;;;;;5042208;28;20223;-58
2023/10/31 05:11:28;;;;;;;1.53;0.73;;;13.50;99.90;;;;;;5039500;28;20240;-59
2023/10/31 05:13:56;;;;;;;3.53;1.73;;;13.50;99.90;;;;;;5040097;28;20217;-59
2023/10/31 05:16:23;;;;;;;4.40;1.50;;;13.50;99.90;;;;;;5043455;28;20198;-59
2023/10/31 05:18:50;;;;;;;2.10;0.80;;;13.50;99.90;;;;;;5043238;28;20212;-59
2023/10/31 05:21:21;;;;;;;2.00;1.27;;;13.40;99.90;;;;;;5039762;28;20734;-59
2023/10/31 05:23:47;;;;;;;1.50;1.07;;;13.40;99.90;;;;;;5039952;28;20297;-59
2023/10/31 05:26:14;;;;;;;5.03;2.00;;;13.20;99.90;;;;;;5042765;28;20293;-59
2023/10/31 05:28:41;;;;;;;2.83;1.17;;;13.10;99.90;;;;;;5043216;28;20217;-59
2023/10/31 05:31:09;;;;;;;1.10;1.00;;;13.10;99.90;;;;;;5040918;28;20209;-60
2023/10/31 05:33:35;;;;;;;1.60;0.97;;;12.90;99.90;;;;;;5039241;28;20203;-59
2023/10/31 05:36:02;;;;;;;4.67;4.10;;;12.90;99.90;;;;;;5040610;28;20206;-59
2023/10/31 05:38:29;;;;;;;5.07;0.90;;;12.80;99.90;;;;;;5042901;28;20634;-60
2023/10/31 05:40:56;;;;;;;1.37;0.77;;;12.80;99.90;;;;;;5042512;28;20205;-59
2023/10/31 05:43:22;;;;;;;3.63;2.43;;;12.70;99.90;;;;;;5039593;28;20210;-60
2023/10/31 05:45:49;;;;;;;3.27;1.00;;;12.60;99.90;;;;;;5039189;28;20579;-60
2023/10/31 05:48:17;;;;;;;3.27;1.43;;;12.60;99.90;;;;;;5042585;28;20590;-60
2023/10/31 05:50:44;;;;;;;4.53;1.20;;;12.50;99.90;;;;;;5042924;28;20212;-60
2023/10/31 05:53:11;;;;;;;2.53;1.10;;;12.40;99.90;;;;;;5039826;28;20229;-58
2023/10/31 05:55:39;;;;;;;1.10;0.90;;;12.40;99.90;;;;;;5039599;28;20252;-59
2023/10/31 05:58:06;;;;;;;1.60;1.40;;;12.30;99.90;;;;;;5039287;28;20215;-59
2023/10/31 06:00:33;;;;;;;2.63;1.20;;;12.30;99.90;;;;;;5039656;28;20205;-60
2023/10/31 06:02:59;;;;;;;1.80;1.30;;;12.20;99.90;;;;;;5039495;28;20232;-60
2023/10/31 06:05:27;;;;;;;2.63;1.50;;;12.10;99.90;;;;;;5042479;28;20202;-59
2023/10/31 06:07:54;;;;;;;3.00;1.20;;;12.10;99.90;;;;;;5042717;28;20208;-58
2023/10/31 06:10:21;;;;;;;5.60;1.50;;;12.10;99.90;;;;;;5042896;28;20213;-59
2023/10/31 06:12:48;;;;;;;2.40;1.10;;;12.00;99.90;;;;;;5042314;28;20295;-59
2023/10/31 06:15:15;;;;;;;2.97;1.00;;;12.00;99.90;;;;;;5040017;28;20205;-59
2023/10/31 06:17:42;;;;;;;2.73;1.17;;;12.00;99.90;;;;;;5039126;28;20589;-60
2023/10/31 06:20:09;;;;;;;3.57;1.10;;;12.00;99.90;;;;;;5040626;28;20256;-60
2023/10/31 06:22:37;;;;;;;2.37;0.90;;;12.10;99.90;;;;;;5042496;28;20225;-60
2023/10/31 06:25:05;;;;;;;3.37;2.27;;;12.10;99.90;;;;;;5041422;28;20213;-60
2023/10/31 06:27:32;;;;;;;1.97;1.30;;;12.20;99.90;;;;;;5039072;28;20295;-59
2023/10/31 06:29:58;;;;;;;2.20;1.40;;;12.30;99.90;;;;;;5039478;28;20627;-60
2023/10/31 06:32:25;;;;;;;4.37;1.00;;;12.30;99.90;;;;;;5038385;28;20648;-59
2023/10/31 06:34:52;;;;;;;1.63;1.00;;;12.40;99.90;;;;;;5039202;28;20210;-60
2023/10/31 06:37:18;;;;;;;1.60;1.10;;;12.40;99.90;;;;;;5039166;28;20285;-60
2023/10/31 06:39:46;;;;;;;2.30;0.87;;;12.50;99.90;;;;;;5039090;28;20651;-59
2023/10/31 06:42:13;;;;;;;3.67;0.70;;;12.50;99.90;;;;;;5041010;28;20501;-59
2023/10/31 06:44:39;;;;;;;1.63;0.83;;;12.50;99.90;;;;;;5045250;28;20214;-59
2023/10/31 06:47:06;;;;;;;3.47;1.00;;;12.60;99.90;;;;;;5043668;28;20249;-60
2023/10/31 06:49:33;;;;;;;2.13;0.67;;;12.60;99.90;;;;;;5046406;28;20869;-60
2023/10/31 06:52:00;;;;;;;1.77;0.97;;;12.70;99.90;;;;;;5045869;28;20671;-60
2023/10/31 06:54:27;;;;;;;1.73;0.90;;;12.80;99.90;;;;;;5046357;28;20201;-60
2023/10/31 06:56:55;;;;;;;1.20;0.90;;;12.90;99.90;;;;;;5046415;28;20201;-59
2023/10/31 06:59:22;;;;;;;1.27;0.77;;;13.00;99.90;;;;;;5042503;28;20202;-59
2023/10/31 07:01:48;;;;;;;1.27;0.63;;;13.10;99.90;;;;;;5042346;28;20716;-60
2023/10/31 07:04:16;;;;;;;1.37;0.50;;;13.10;99.90;;;;;;5045055;28;20203;-59
2023/10/31 07:06:43;;;;;;;4.10;0.70;;;13.20;99.90;;;;;;5045937;28;20240;-60
2023/10/31 07:09:09;;;;;;;0.53;0.50;;;13.30;99.90;;;;;;5044111;28;20206;-59
2023/10/31 07:11:36;;;;;;;2.77;0.57;;;13.40;99.90;;;;;;5042067;28;20232;-59
2023/10/31 07:14:04;;;;;;;1.43;0.87;;;13.50;99.90;;;;;;5042898;28;20202;-59
2023/10/31 07:16:33;;;;;;;2.13;0.70;;;13.60;99.90;;;;;;5045839;28;20198;-58
2023/10/31 07:18:59;;;;;;;2.40;0.80;;;13.60;99.90;;;;;;5045904;28;20202;-58
2023/10/31 07:21:27;;;;;;;3.90;0.70;;;13.70;99.90;;;;;;5038289;28;20218;-58
2023/10/31 07:23:53;;;;;;;1.70;0.80;;;13.70;99.90;;;;;;5046362;28;20263;-58
2023/10/31 07:26:20;;;;;;;1.20;0.67;;;13.70;99.90;;;;;;5042785;28;20218;-63
2023/10/31 07:28:48;;;;;;;4.53;0.80;;;13.80;99.90;;;;;;5049212;28;20209;-58
2023/10/31 07:31:16;;;;;;;1.70;0.70;;;13.80;99.90;;;;;;5043254;28;20717;-58
2023/10/31 07:33:44;;;;;;;3.17;1.20;;;13.90;99.90;;;;;;5043368;28;20622;-57
2023/10/31 07:36:11;;;;;;;0.97;0.70;;;14.00;99.90;;;;;;5043634;28;20225;-58
2023/10/31 07:38:38;;;;;;;1.50;1.10;;;14.00;99.90;;;;;;5043034;28;20579;-58
2023/10/31 07:41:05;;;;;;;3.57;1.00;;;14.10;99.90;;;;;;5043154;28;20242;-59
2023/10/31 07:43:32;;;;;;;1.60;0.70;;;14.10;99.90;;;;;;5045804;28;20654;-59
2023/10/31 07:45:58;;;;;;;2.67;1.37;;;14.10;99.90;;;;;;5046003;28;20205;-59
2023/10/31 07:48:26;;;;;;;1.13;0.70;;;14.10;99.90;;;;;;5042845;28;20304;-58
2023/10/31 07:50:53;;;;;;;1.30;0.60;;;13.90;99.90;;;;;;5043352;28;20319;-59
2023/10/31 07:53:20;;;;;;;3.97;1.97;;;14.20;99.90;;;;;;5045491;28;20198;-59
2023/10/31 07:55:47;;;;;;;2.23;0.87;;;14.30;99.90;;;;;;5046490;28;20205;-58
2023/10/31 07:58:14;;;;;;;3.40;0.60;;;14.40;99.90;;;;;;5043313;28;20222;-58
2023/10/31 08:00:40;;;;;;;5.23;0.90;;;14.30;99.90;;;;;;5048249;28;20210;-59
2023/10/31 08:03:07;;;;;;;0.87;0.70;;;14.40;99.90;;;;;;5044085;28;20237;-58
2023/10/31 08:05:35;;;;;;;2.43;0.90;;;14.40;99.90;;;;;;5046596;28;20201;-59
2023/10/31 08:08:02;;;;;;;2.90;0.90;;;14.50;99.90;;;;;;5044249;28;20630;-58
2023/10/31 08:10:29;;;;;;;1.07;0.47;;;14.50;99.90;;;;;;5041420;28;20229;-59
2023/10/31 08:12:56;;;;;;;3.90;2.07;;;14.50;99.90;;;;;;5041068;28;20578;-64
2023/10/31 08:15:22;;;;;;;2.47;0.50;;;14.70;99.90;;;;;;5044387;28;20201;-57
2023/10/31 08:17:49;;;;;;;1.20;0.70;;;14.70;99.90;;;;;;5044736;28;20201;-59
2023/10/31 08:20:16;;;;;;;2.40;0.57;;;14.80;99.90;;;;;;5042365;28;20212;-58
2023/10/31 08:22:44;;;;;;;1.33;0.80;;;14.90;99.90;;;;;;5040784;28;20257;-57
2023/10/31 08:25:11;;;;;;;1.60;0.77;;;15.10;99.90;;;;;;5042430;28;20206;-57
2023/10/31 08:27:38;;;;;;;1.87;0.67;;;15.20;99.90;;;;;;5044428;28;20224;-57
2023/10/31 08:30:05;;;;;;;1.27;0.53;;;15.40;99.90;;;;;;5043817;28;20213;-57
2023/10/31 08:32:32;;;;;;;1.27;0.60;;;15.50;99.90;;;;;;5041084;28;20229;-59
2023/10/31 08:35:00;;;;;;;1.00;0.60;;;15.60;99.90;;;;;;5041211;28;20297;-57
2023/10/31 08:37:26;;;;;;;3.50;0.87;;;15.80;99.90;;;;;;5044895;28;20536;-58
2023/10/31 08:39:54;;;;;;;1.53;0.70;;;15.90;99.90;;;;;;5045009;28;20210;-60
2023/10/31 08:42:21;;;;;;;2.88;0.70;;;16.00;99.90;;;;;;5041486;28;20222;-59
2023/10/31 08:44:48;;;;;;;1.80;0.70;;;16.10;99.90;;;;;;5041253;28;20257;-60
2023/10/31 08:47:15;;;;;;;3.03;0.87;;;16.30;99.90;;;;;;5043000;28;20229;-58
2023/10/31 08:49:41;;;;;;;2.92;0.75;;;16.40;99.90;;;;;;5045169;28;20211;-57
2023/10/31 08:52:08;;;;;;;1.10;0.50;;;16.50;99.90;;;;;;5042814;28;20735;-59
2023/10/31 08:54:35;;;;;;;1.45;0.80;;;16.60;99.90;;;;;;5040678;28;20548;-58
2023/10/31 08:57:03;;;;;;;3.92;2.00;;;16.60;99.90;;;;;;5040956;28;20582;-58
2023/10/31 08:59:30;;;;;;;2.40;0.63;;;16.70;99.90;;;;;;5044346;28;20480;-59
2023/10/31 09:01:56;;;;;;;2.28;0.90;;;16.90;99.90;;;;;;5043898;28;20229;-59
2023/10/31 09:04:23;;;;;;;1.42;0.70;;;17.00;99.90;;;;;;5040998;28;20202;-58
2023/10/31 09:06:50;;;;;;;2.00;0.60;;;17.10;99.90;;;;;;5040092;28;20233;-62
2023/10/31 09:09:16;;;;;;;1.80;0.80;;;17.10;99.90;;;;;;5042284;28;20209;-58
2023/10/31 09:11:43;;;;;;;2.33;1.35;;;17.20;99.90;;;;;;5043605;28;20243;-59
2023/10/31 09:14:11;;;;;;;1.13;0.70;;;17.40;99.90;;;;;;5042493;28;20255;-59
2023/10/31 09:16:38;;;;;;;2.22;0.80;;;17.50;99.90;;;;;;5040333;28;20203;-61
2023/10/31 09:19:05;;;;;;;3.58;0.77;;;17.50;99.90;;;;;;5040570;28;20209;-59
2023/10/31 09:21:31;;;;;;;1.75;0.57;;;17.50;99.90;;;;;;5043725;28;20584;-60
2023/10/31 09:23:58;;;;;;;3.15;0.80;;;17.50;99.90;;;;;;5043884;28;20209;-60
2023/10/31 09:26:25;;;;;;;4.60;0.82;;;17.40;99.90;;;;;;5040850;28;20203;-59
2023/10/31 09:28:51;;;;;;;3.53;0.73;;;17.40;99.90;;;;;;5039956;28;20691;-59
2023/10/31 09:31:20;;;;;;;4.43;0.73;;;17.40;99.90;;;;;;5041664;28;20651;-59
2023/10/31 09:33:47;;;;;;;6.50;1.45;;;17.50;99.90;;;;;;5043084;28;20208;-60
2023/10/31 09:36:14;;;;;;;3.63;0.90;;;17.60;99.90;;;;;;5041632;28;20221;-59
2023/10/31 09:38:41;;;;;;;3.55;1.20;;;17.60;99.90;;;;;;5039779;28;20293;-59
2023/10/31 09:41:08;;;;;;;1.73;0.63;;;17.60;99.90;;;;;;5040585;28;20206;-59
2023/10/31 09:43:35;;;;;;;4.78;0.95;;;17.70;99.90;;;;;;5042919;28;20214;-58
2023/10/31 09:46:03;;;;;;;2.47;1.20;;;17.60;99.90;;;;;;5042999;28;20208;-58
2023/10/31 09:48:32;;;;;;;2.78;1.10;;;17.70;99.90;;;;;;5031488;28;20257;-59
2023/10/31 09:50:59;;;;;;;6.38;1.20;;;17.70;99.90;;;;;;5039475;28;20210;-59
2023/10/31 09:53:28;;;;;;;2.58;1.00;;;17.80;99.90;;;;;;5042492;28;20220;-59
2023/10/31 09:55:56;;;;;;;3.13;1.20;;;17.80;99.90;;;;;;5043078;28;20205;-60
2023/10/31 09:58:22;;;;;;;2.25;1.55;;;17.80;99.90;;;;;;5043059;28;20256;-60
2023/10/31 10:00:49;;;;;;;3.30;1.08;;;17.90;99.90;;;;;;5042831;28;20209;-61
2023/10/31 10:03:17;;;;;;;2.42;1.30;;;18.00;99.90;;;;;;5040823;28;20298;-60
2023/10/31 10:05:46;;;;;;;4.63;1.30;;;18.10;99.90;;;;;;5039323;28;20668;-60
2023/10/31 10:08:13;;;;;;;4.05;0.98;;;18.10;99.90;;;;;;5040325;28;20587;-60
2023/10/31 10:10:39;;;;;;;1.98;0.93;;;18.10;99.90;;;;;;5042962;28;20206;-59
2023/10/31 10:13:06;;;;;;;5.30;1.40;;;18.10;99.90;;;;;;5042754;28;20721;-60
2023/10/31 10:15:44;;;;;;;5.35;1.45;;;18.10;99.90;;;;;;5039385;28;20200;-60
2023/10/31 10:18:11;;;;;;;3.05;1.20;;;18.10;99.90;;;;;;5040056;28;20206;-60
2023/10/31 10:20:57;;;;;;;2.15;0.90;;;18.10;99.90;;;;;;5044949;28;20201;-59
2023/10/31 10:23:24;;;;;;;1.70;0.50;;;18.00;99.90;;;;;;5043768;28;20686;-59
2023/10/31 10:25:51;;;;;;;2.40;0.88;;;17.80;99.90;;;;;;5041625;28;20206;-59
2023/10/31 10:28:18;;;;;;;2.15;1.00;;;17.90;99.90;;;;;;5044613;28;20228;-60
2023/10/31 10:30:46;;;;;;;3.75;0.82;;;17.90;99.90;;;;;;5043418;28;20344;-59
2023/10/31 10:33:13;;;;;;;1.25;0.68;;;17.90;99.90;;;;;;5044252;28;20309;-59
2023/10/31 10:35:39;;;;;;;3.08;1.23;;;18.00;99.90;;;;;;5046640;28;20209;-59
2023/10/31 10:38:12;;;;;;;3.97;1.58;;;18.20;99.90;;;;;;5045938;28;20300;-59
2023/10/31 10:40:40;;;;;;;2.75;1.10;;;18.20;99.90;;;;;;5042847;28;20742;-62
2023/10/31 10:43:12;;;;;;;3.60;1.10;;;18.10;99.90;;;;;;5043038;28;20280;-61
2023/10/31 10:45:43;;;;;;;2.35;1.20;;;18.00;99.90;;;;;;5046715;28;20278;-60
2023/10/31 10:48:13;;;;;;;5.85;1.20;;;18.10;99.90;;;;;;5045338;28;20217;-59
2023/10/31 10:50:43;;;;;;;7.38;3.60;;;18.10;99.90;;;;;;5042712;28;20344;-60
2023/10/31 10:53:22;;;;;;;3.67;1.50;;;18.00;99.90;;;;;;5043186;28;20245;-60
2023/10/31 10:55:55;;;;;;;7.05;1.30;;;18.10;99.90;;;;;;5046175;28;20205;-60
2023/10/31 10:58:28;;;;;;;7.15;1.60;;;18.10;99.90;;;;;;5043596;28;20663;-59
2023/10/31 11:00:58;;;;;;;6.25;1.52;;;18.10;99.90;;;;;;5042706;28;20238;-59
2023/10/31 11:03:25;;;;;;;5.53;1.30;;;18.10;99.90;;;;;;5045152;28;20259;-60
2023/10/31 11:05:52;;;;;;;3.22;1.33;;;18.10;99.90;;;;;;5046156;28;20267;-61
2023/10/31 11:08:21;;;;;;;5.18;1.38;;;18.00;99.90;;;;;;5043674;28;20224;-60
2023/10/31 11:10:49;;;;;;;3.15;1.13;;;17.90;99.90;;;;;;5042455;28;20203;-61
2023/10/31 11:13:16;;;;;;;4.80;1.40;;;17.90;99.90;;;;;;5043363;28;20237;-61
2023/10/31 11:15:44;;;;;;;3.25;1.30;;;17.90;99.90;;;;;;5045717;28;20729;-60
2023/10/31 11:18:11;;;;;;;8.30;1.50;;;18.00;99.90;;;;;;5044807;28;20205;-59
2023/10/31 11:20:39;;;;;;;6.00;1.30;;;18.20;99.90;;;;;;5042405;28;20210;-61
2023/10/31 11:23:06;;;;;;;2.85;1.00;;;18.30;99.90;;;;;;5042065;28;20603;-61
2023/10/31 11:25:34;;;;;;;3.60;1.20;;;18.20;99.90;;;;;;5045722;28;20201;-60
2023/10/31 11:28:17;;;;;;;3.45;1.88;;;18.20;99.90;;;;;;5045498;28;20226;-60
2023/10/31 11:30:46;;;;;;;2.63;1.05;;;18.30;99.90;;;;;;5034319;28;20217;-60
2023/10/31 11:33:14;;;;;;;2.97;1.15;;;18.40;99.90;;;;;;5042056;28;20234;-60
2023/10/31 11:35:41;;;;;;;5.05;1.27;;;18.50;99.90;;;;;;5045543;28;20205;-60
2023/10/31 11:38:11;;;;;;;3.58;0.90;;;18.50;99.90;;;;;;5044880;28;20201;-60
2023/10/31 11:40:59;;;;;;;2.70;1.20;;;18.50;99.90;;;;;;5042268;28;20576;-60
2023/10/31 11:43:26;;;;;;;5.03;1.40;;;18.50;99.90;;;;;;5044715;28;20293;-62
2023/10/31 11:45:54;;;;;;;4.60;1.80;;;18.50;99.90;;;;;;5045343;28;20206;-61
2023/10/31 11:48:50;;;;;;;3.78;1.50;;;18.50;99.90;;;;;;5043146;28;20275;-61
2023/10/31 11:51:16;;;;;;;5.65;1.08;;;18.40;99.90;;;;;;5043190;28;20288;-61
2023/10/31 11:53:44;;;;;;;2.60;1.00;;;18.20;99.90;;;;;;5045296;28;20208;-61
2023/10/31 11:56:12;;;;;;;6.57;1.42;;;18.20;99.90;;;;;;5044131;28;20205;-60
2023/10/31 11:58:39;;;;;;;4.78;0.93;;;18.30;99.90;;;;;;5041646;28;20658;-61
2023/10/31 12:01:08;;;;;;;4.72;1.23;;;18.20;99.90;;;;;;5041248;28;20214;-60
2023/10/31 12:03:39;;;;;;;3.95;1.05;;;18.00;99.90;;;;;;5041297;28;20213;-61
2023/10/31 12:06:06;;;;;;;4.47;1.23;;;17.90;99.90;;;;;;5039808;28;20301;-60
2023/10/31 12:08:35;;;;;;;2.13;1.20;;;17.90;99.90;;;;;;5035503;28;20221;-60
2023/10/31 12:11:06;;;;;;;3.35;1.17;;;17.90;99.90;;;;;;5044192;28;20315;-62
2023/10/31 12:13:35;;;;;;;4.57;1.40;;;17.80;99.90;;;;;;5033154;28;20620;-62
2023/10/31 12:16:02;;;;;;;3.92;1.45;;;17.60;99.90;;;;;;5040888;28;20207;-61
2023/10/31 12:18:29;;;;;;;3.25;1.50;;;17.30;99.90;;;;;;5043349;28;20204;-61
2023/10/31 12:20:56;;;;;;;4.65;1.13;;;17.20;99.90;;;;;;5032779;28;20592;-60
2023/10/31 12:23:23;;;;;;;5.10;1.05;;;17.10;99.90;;;;;;5024987;28;20210;-61
2023/10/31 12:25:51;;;;;;;3.67;1.15;;;17.00;99.90;;;;;;5030487;28;20210;-60
2023/10/31 12:28:18;;;;;;;5.13;1.20;;;16.90;99.90;;;;;;5032267;28;20237;-61
2023/10/31 12:30:50;;;;;;;5.45;2.17;;;16.90;99.90;;;;;;5032015;28;20217;-61
2023/10/31 12:33:17;;;;;;;2.58;0.80;;;16.90;99.90;;;;;;5030774;28;20609;-59
2023/10/31 12:35:44;;;;;;;2.08;0.90;;;16.90;99.90;;;;;;5032653;28;20222;-59
2023/10/31 12:38:12;;;;;;;2.80;1.13;;;16.90;99.90;;;;;;5032141;28;20218;-59
2023/10/31 12:40:40;;;;;;;4.20;1.42;;;17.10;99.90;;;;;;5030882;28;20206;-60
2023/10/31 12:43:07;;;;;;;3.45;1.55;;;17.30;99.90;;;;;;5031273;28;20257;-59
2023/10/31 12:45:34;;;;;;;6.07;1.30;;;17.50;99.90;;;;;;5023892;28;20563;-59
2023/10/31 12:48:06;;;;;;;1.65;0.98;;;17.70;99.90;;;;;;5031386;28;20253;-62
2023/10/31 12:50:34;;;;;;;1.17;1.00;;;17.80;99.90;;;;;;5032028;28;20210;-60